sensor_id;sensor_type;location;lat;lon;timestamp;pressure;altitude;pressure_sealevel;temperature;humidity
21588;BME280;10956;48.878;13.316;2022-12-22T00:01:49;93959.75;;;3.34;100.00
21588;BME280;10956;48.878;13.316;2022-12-22T00:04:34;93951.25;;;3.38;100.00
21588;BME280;10956;48.878;13.316;2022-12-22T00:07:18;93941.19;;;3.42;100.00
21588;BME280;10956;48.878;13.316;2022-12-22T00:10:02;93948.53;;;3.45;100.00
21588;BME280;10956;48.878;13.316;2022-12-22T00:12:46;93935.63;;;3.50;100.00
21588;BME280;10956;48.878;13.316;2022-12-22T00:15:32;93933.47;;;3.47;100.00
21588;BME280;10956;48.878;13.316;2022-12-22T00:18:16;93928.97;;;3.42;100.00
21588;BME280;10956;48.878;13.316;2022-12-22T00:21:00;93925.34;;;3.43;100.00
21588;BME280;10956;48.878;13.316;2022-12-22T00:23:44;93935.28;;;3.46;100.00
21588;BME280;10956;48.878;13.316;2022-12-22T00:26:29;93928.50;;;3.45;100.00
21588;BME280;10956;48.878;13.316;2022-12-22T00:29:15;93926.91;;;3.44;100.00
21588;BME280;10956;48.878;13.316;2022-12-22T00:32:00;93928.03;;;3.48;100.00
21588;BME280;10956;48.878;13.316;2022-12-22T00:34:44;93925.53;;;3.53;100.00
21588;BME280;10956;48.878;13.316;2022-12-22T00:37:34;93917.97;;;3.52;100.00
21588;BME280;10956;48.878;13.316;2022-12-22T00:40:25;93913.88;;;3.44;100.00
21588;BME280;10956;48.878;13.316;2022-12-22T00:43:14;93902.69;;;3.44;100.00
21588;BME280;10956;48.878;13.316;2022-12-22T00:45:58;93911.06;;;3.46;100.00
21588;BME280;10956;48.878;13.316;2022-12-22T00:48:44;93903.69;;;3.43;100.00
21588;BME280;10956;48.878;13.316;2022-12-22T00:51:29;93900.97;;;3.49;100.00
21588;BME280;10956;48.878;13.316;2022-12-22T00:54:15;93906.84;;;3.56;100.00
21588;BME280;10956;48.878;13.316;2022-12-22T00:57:02;93900.16;;;3.61;100.00
21588;BME280;10956;48.878;13.316;2022-12-22T00:59:47;93903.78;;;3.60;100.00
21588;BME280;10956;48.878;13.316;2022-12-22T01:02:32;93907.41;;;3.59;100.00
21588;BME280;10956;48.878;13.316;2022-12-22T01:05:17;93897.44;;;3.55;100.00
21588;BME280;10956;48.878;13.316;2022-12-22T01:08:01;93896.44;;;3.56;100.00
21588;BME280;10956;48.878;13.316;2022-12-22T01:10:45;93912.63;;;3.59;100.00
21588;BME280;10956;48.878;13.316;2022-12-22T01:13:30;93915.34;;;3.64;100.00
21588;BME280;10956;48.878;13.316;2022-12-22T01:16:14;93908.44;;;3.58;100.00
21588;BME280;10956;48.878;13.316;2022-12-22T01:18:58;93900.50;;;3.52;100.00
21588;BME280;10956;48.878;13.316;2022-12-22T01:21:42;93906.28;;;3.54;100.00
21588;BME280;10956;48.878;13.316;2022-12-22T01:24:28;93895.41;;;3.58;100.00
21588;BME280;10956;48.878;13.316;2022-12-22T01:27:13;93889.06;;;3.53;100.00
21588;BME280;10956;48.878;13.316;2022-12-22T01:29:57;93882.28;;;3.52;100.00
21588;BME280;10956;48.878;13.316;2022-12-22T01:32:41;93884.44;;;3.55;100.00
21588;BME280;10956;48.878;13.316;2022-12-22T01:35:27;93881.63;;;3.45;100.00
21588;BME280;10956;48.878;13.316;2022-12-22T01:38:12;93880.28;;;3.31;100.00
21588;BME280;10956;48.878;13.316;2022-12-22T01:40:58;93880.16;;;3.26;100.00
21588;BME280;10956;48.878;13.316;2022-12-22T01:43:42;93879.81;;;3.34;100.00
21588;BME280;10956;48.878;13.316;2022-12-22T01:46:30;93875.28;;;3.41;100.00
21588;BME280;10956;48.878;13.316;2022-12-22T01:49:38;93874.81;;;3.44;100.00
21588;BME280;10956;48.878;13.316;2022-12-22T01:52:33;93877.06;;;3.52;100.00
21588;BME280;10956;48.878;13.316;2022-12-22T01:55:23;93863.03;;;3.53;100.00
21588;BME280;10956;48.878;13.316;2022-12-22T01:58:21;93864.16;;;3.58;100.00
21588;BME280;10956;48.878;13.316;2022-12-22T02:01:07;93858.47;;;3.61;100.00
21588;BME280;10956;48.878;13.316;2022-12-22T02:03:51;93851.69;;;3.60;100.00
21588;BME280;10956;48.878;13.316;2022-12-22T02:06:38;93863.22;;;3.64;100.00
21588;BME280;10956;48.878;13.316;2022-12-22T02:15:29;93852.81;;;3.64;100.00
21588;BME280;10956;48.878;13.316;2022-12-22T02:18:26;93862.75;;;3.67;100.00
21588;BME280;10956;48.878;13.316;2022-12-22T02:21:18;93855.97;;;3.66;100.00
21588;BME280;10956;48.878;13.316;2022-12-22T02:24:39;93851.53;;;3.66;100.00
21588;BME280;10956;48.878;13.316;2022-12-22T02:27:25;93843.50;;;3.68;100.00
21588;BME280;10956;48.878;13.316;2022-12-22T02:30:11;93850.19;;;3.64;100.00
21588;BME280;10956;48.878;13.316;2022-12-22T02:32:56;93845.47;;;3.49;100.00
21588;BME280;10956;48.878;13.316;2022-12-22T02:45:14;93823.16;;;3.53;100.00
21588;BME280;10956;48.878;13.316;2022-12-22T02:48:36;93825.63;;;3.60;100.00
21588;BME280;10956;48.878;13.316;2022-12-22T02:51:16;93824.25;;;3.69;100.00
21588;BME280;10956;48.878;13.316;2022-12-22T02:54:03;93818.88;;;3.75;100.00
21588;BME280;10956;48.878;13.316;2022-12-22T02:56:48;93805.84;;;3.75;100.00
21588;BME280;10956;48.878;13.316;2022-12-22T02:59:32;93803.56;;;3.79;100.00
21588;BME280;10956;48.878;13.316;2022-12-22T03:02:16;93805.63;;;3.77;100.00
21588;BME280;10956;48.878;13.316;2022-12-22T03:05:00;93802.31;;;3.81;100.00
21588;BME280;10956;48.878;13.316;2022-12-22T03:07:44;93798.22;;;3.85;100.00
21588;BME280;10956;48.878;13.316;2022-12-22T03:10:28;93799.09;;;3.91;100.00
21588;BME280;10956;48.878;13.316;2022-12-22T03:13:12;93803.75;;;3.89;100.00
21588;BME280;10956;48.878;13.316;2022-12-22T03:15:56;93804.09;;;3.93;100.00
21588;BME280;10956;48.878;13.316;2022-12-22T03:18:40;93805.16;;;3.80;100.00
21588;BME280;10956;48.878;13.316;2022-12-22T03:21:24;93804.97;;;3.70;100.00
21588;BME280;10956;48.878;13.316;2022-12-22T03:24:08;93816.97;;;3.71;100.00
21588;BME280;10956;48.878;13.316;2022-12-22T03:26:51;93804.50;;;3.73;100.00
21588;BME280;10956;48.878;13.316;2022-12-22T03:29:17;93800.41;;;3.77;100.00
21588;BME280;10956;48.878;13.316;2022-12-22T03:31:42;93799.47;;;3.83;100.00
21588;BME280;10956;48.878;13.316;2022-12-22T03:34:08;93796.63;;;3.84;100.00
21588;BME280;10956;48.878;13.316;2022-12-22T03:36:33;93793.47;;;3.82;100.00
21588;BME280;10956;48.878;13.316;2022-12-22T03:38:59;93801.38;;;3.87;100.00
21588;BME280;10956;48.878;13.316;2022-12-22T03:41:24;93786.53;;;3.88;100.00
21588;BME280;10956;48.878;13.316;2022-12-22T03:44:08;93787.34;;;3.88;100.00
21588;BME280;10956;48.878;13.316;2022-12-22T03:46:52;93781.31;;;3.88;100.00
21588;BME280;10956;48.878;13.316;2022-12-22T03:49:18;93782.25;;;3.82;100.00
21588;BME280;10956;48.878;13.316;2022-12-22T03:51:49;93772.78;;;3.76;100.00
21588;BME280;10956;48.878;13.316;2022-12-22T03:54:16;93768.97;;;3.67;100.00
21588;BME280;10956;48.878;13.316;2022-12-22T03:56:42;93774.63;;;3.64;100.00
21588;BME280;10956;48.878;13.316;2022-12-22T03:59:09;93778.81;;;3.65;100.00
21588;BME280;10956;48.878;13.316;2022-12-22T04:01:46;93777.69;;;3.61;100.00
21588;BME280;10956;48.878;13.316;2022-12-22T04:04:13;93771.94;;;3.59;100.00
21588;BME280;10956;48.878;13.316;2022-12-22T04:06:40;93767.84;;;3.63;100.00
21588;BME280;10956;48.878;13.316;2022-12-22T04:09:06;93772.13;;;3.69;100.00
21588;BME280;10956;48.878;13.316;2022-12-22T04:11:31;93781.63;;;3.75;100.00
21588;BME280;10956;48.878;13.316;2022-12-22T04:14:15;93782.72;;;3.79;100.00
21588;BME280;10956;48.878;13.316;2022-12-22T04:16:41;93784.31;;;3.80;100.00
21588;BME280;10956;48.878;13.316;2022-12-22T04:19:07;93787.47;;;3.82;100.00
21588;BME280;10956;48.878;13.316;2022-12-22T04:21:33;93783.94;;;3.88;100.00
21588;BME280;10956;48.878;13.316;2022-12-22T04:23:58;93781.88;;;3.90;100.00
21588;BME280;10956;48.878;13.316;2022-12-22T04:26:24;93786.69;;;3.81;100.00
21588;BME280;10956;48.878;13.316;2022-12-22T04:28:51;93783.84;;;3.83;100.00
21588;BME280;10956;48.878;13.316;2022-12-22T04:31:18;93786.81;;;3.75;100.00
21588;BME280;10956;48.878;13.316;2022-12-22T04:33:44;93776.41;;;3.75;100.00
21588;BME280;10956;48.878;13.316;2022-12-22T04:36:09;93784.91;;;3.70;100.00
21588;BME280;10956;48.878;13.316;2022-12-22T04:38:35;93779.94;;;3.69;100.00
21588;BME280;10956;48.878;13.316;2022-12-22T04:41:01;93768.50;;;3.70;100.00
21588;BME280;10956;48.878;13.316;2022-12-22T04:43:27;93771.66;;;3.72;100.00
21588;BME280;10956;48.878;13.316;2022-12-22T04:45:53;93773.25;;;3.73;100.00
21588;BME280;10956;48.878;13.316;2022-12-22T04:48:20;93766.78;;;3.75;100.00
21588;BME280;10956;48.878;13.316;2022-12-22T04:50:49;93768.66;;;3.80;100.00
21588;BME280;10956;48.878;13.316;2022-12-22T04:53:14;93759.84;;;3.81;100.00
21588;BME280;10956;48.878;13.316;2022-12-22T04:55:45;93760.38;;;3.83;100.00
21588;BME280;10956;48.878;13.316;2022-12-22T04:58:10;93766.16;;;3.85;100.00
21588;BME280;10956;48.878;13.316;2022-12-22T05:00:36;93761.19;;;3.83;100.00
21588;BME280;10956;48.878;13.316;2022-12-22T05:03:01;93756.19;;;3.82;100.00
21588;BME280;10956;48.878;13.316;2022-12-22T05:05:26;93765.03;;;3.81;100.00
21588;BME280;10956;48.878;13.316;2022-12-22T05:07:52;93745.22;;;3.80;100.00
21588;BME280;10956;48.878;13.316;2022-12-22T05:10:17;93755.41;;;3.81;100.00
21588;BME280;10956;48.878;13.316;2022-12-22T05:12:42;93753.50;;;3.77;100.00
21588;BME280;10956;48.878;13.316;2022-12-22T05:15:21;93754.75;;;3.74;100.00
21588;BME280;10956;48.878;13.316;2022-12-22T05:17:47;93750.47;;;3.68;100.00
21588;BME280;10956;48.878;13.316;2022-12-22T05:20:13;93751.28;;;3.69;100.00
21588;BME280;10956;48.878;13.316;2022-12-22T05:22:38;93744.00;;;3.71;100.00
21588;BME280;10956;48.878;13.316;2022-12-22T05:25:04;93751.91;;;3.76;100.00
21588;BME280;10956;48.878;13.316;2022-12-22T05:27:30;93749.63;;;3.79;100.00
21588;BME280;10956;48.878;13.316;2022-12-22T05:29:55;93741.59;;;3.81;100.00
21588;BME280;10956;48.878;13.316;2022-12-22T05:32:20;93737.25;;;3.86;100.00
21588;BME280;10956;48.878;13.316;2022-12-22T05:34:46;93737.56;;;3.90;100.00
21588;BME280;10956;48.878;13.316;2022-12-22T05:37:11;93739.25;;;3.96;100.00
21588;BME280;10956;48.878;13.316;2022-12-22T05:39:37;93734.66;;;4.03;100.00
21588;BME280;10956;48.878;13.316;2022-12-22T05:42:02;93735.28;;;4.10;100.00
21588;BME280;10956;48.878;13.316;2022-12-22T05:44:28;93736.78;;;4.06;100.00
21588;BME280;10956;48.878;13.316;2022-12-22T05:46:53;93732.84;;;4.04;100.00
21588;BME280;10956;48.878;13.316;2022-12-22T05:49:18;93740.13;;;4.02;100.00
21588;BME280;10956;48.878;13.316;2022-12-22T05:51:44;93740.91;;;4.02;100.00
21588;BME280;10956;48.878;13.316;2022-12-22T05:54:10;93732.53;;;4.00;100.00
21588;BME280;10956;48.878;13.316;2022-12-22T05:56:36;93734.91;;;4.02;100.00
21588;BME280;10956;48.878;13.316;2022-12-22T05:59:01;93740.75;;;4.09;100.00
21588;BME280;10956;48.878;13.316;2022-12-22T06:01:27;93736.31;;;4.09;100.00
21588;BME280;10956;48.878;13.316;2022-12-22T06:03:52;93741.53;;;4.09;100.00
21588;BME280;10956;48.878;13.316;2022-12-22T06:06:18;93730.88;;;4.11;100.00
21588;BME280;10956;48.878;13.316;2022-12-22T06:08:43;93725.41;;;4.12;100.00
21588;BME280;10956;48.878;13.316;2022-12-22T06:11:08;93732.94;;;4.09;100.00
21588;BME280;10956;48.878;13.316;2022-12-22T06:13:34;93734.66;;;4.03;100.00
21588;BME280;10956;48.878;13.316;2022-12-22T06:15:59;93736.16;;;3.99;100.00
21588;BME280;10956;48.878;13.316;2022-12-22T06:18:25;93735.03;;;3.95;100.00
21588;BME280;10956;48.878;13.316;2022-12-22T06:20:51;93732.22;;;3.97;100.00
21588;BME280;10956;48.878;13.316;2022-12-22T06:23:17;93731.97;;;3.98;100.00
21588;BME280;10956;48.878;13.316;2022-12-22T06:28:20;93731.72;;;4.00;100.00
21588;BME280;10956;48.878;13.316;2022-12-22T06:30:47;93723.91;;;4.00;100.00
21588;BME280;10956;48.878;13.316;2022-12-22T06:33:12;93732.06;;;4.03;100.00
21588;BME280;10956;48.878;13.316;2022-12-22T06:35:37;93731.09;;;4.09;100.00
21588;BME280;10956;48.878;13.316;2022-12-22T06:38:03;93734.28;;;4.11;100.00
21588;BME280;10956;48.878;13.316;2022-12-22T06:40:28;93736.41;;;4.14;100.00
21588;BME280;10956;48.878;13.316;2022-12-22T06:42:53;93733.41;;;4.06;100.00
21588;BME280;10956;48.878;13.316;2022-12-22T06:45:39;93733.63;;;4.04;100.00
21588;BME280;10956;48.878;13.316;2022-12-22T06:48:05;93732.53;;;4.00;100.00
21588;BME280;10956;48.878;13.316;2022-12-22T06:50:31;93733.16;;;4.07;100.00
21588;BME280;10956;48.878;13.316;2022-12-22T06:52:56;93735.28;;;4.10;100.00
21588;BME280;10956;48.878;13.316;2022-12-22T06:55:22;93728.03;;;4.12;100.00
21588;BME280;10956;48.878;13.316;2022-12-22T06:57:47;93730.63;;;4.12;100.00
21588;BME280;10956;48.878;13.316;2022-12-22T07:00:13;93722.09;;;4.17;100.00
21588;BME280;10956;48.878;13.316;2022-12-22T07:02:38;93728.09;;;4.17;100.00
21588;BME280;10956;48.878;13.316;2022-12-22T07:05:04;93735.28;;;4.10;100.00
21588;BME280;10956;48.878;13.316;2022-12-22T07:07:30;93742.66;;;4.13;100.00
21588;BME280;10956;48.878;13.316;2022-12-22T07:09:55;93726.75;;;4.15;100.00
21588;BME280;10956;48.878;13.316;2022-12-22T07:12:22;93740.13;;;4.18;100.00
21588;BME280;10956;48.878;13.316;2022-12-22T07:14:47;93735.94;;;4.17;100.00
21588;BME280;10956;48.878;13.316;2022-12-22T07:17:15;93728.19;;;4.22;100.00
21588;BME280;10956;48.878;13.316;2022-12-22T07:19:40;93722.25;;;4.27;100.00
21588;BME280;10956;48.878;13.316;2022-12-22T07:22:06;93718.63;;;4.28;100.00
21588;BME280;10956;48.878;13.316;2022-12-22T07:24:32;93729.84;;;4.29;100.00
21588;BME280;10956;48.878;13.316;2022-12-22T07:26:58;93728.97;;;4.23;100.00
21588;BME280;10956;48.878;13.316;2022-12-22T07:29:23;93705.34;;;4.30;100.00
21588;BME280;10956;48.878;13.316;2022-12-22T07:31:49;93707.94;;;4.30;100.00
21588;BME280;10956;48.878;13.316;2022-12-22T07:34:14;93714.03;;;4.35;100.00
21588;BME280;10956;48.878;13.316;2022-12-22T07:36:40;93703.66;;;4.40;100.00
21588;BME280;10956;48.878;13.316;2022-12-22T07:39:05;93711.81;;;4.44;100.00
21588;BME280;10956;48.878;13.316;2022-12-22T07:41:31;93695.19;;;4.50;100.00
21588;BME280;10956;48.878;13.316;2022-12-22T07:44:15;93697.25;;;4.48;100.00
21588;BME280;10956;48.878;13.316;2022-12-22T07:46:40;93695.28;;;4.55;100.00
21588;BME280;10956;48.878;13.316;2022-12-22T07:49:06;93694.25;;;4.56;100.00
21588;BME280;10956;48.878;13.316;2022-12-22T07:51:51;93687.91;;;4.52;100.00
21588;BME280;10956;48.878;13.316;2022-12-22T07:54:17;93696.00;;;4.50;100.00
21588;BME280;10956;48.878;13.316;2022-12-22T07:56:44;93689.50;;;4.53;100.00
21588;BME280;10956;48.878;13.316;2022-12-22T07:59:10;93682.69;;;4.52;100.00
21588;BME280;10956;48.878;13.316;2022-12-22T08:01:36;93693.75;;;4.59;100.00
21588;BME280;10956;48.878;13.316;2022-12-22T08:04:02;93678.72;;;4.66;100.00
21588;BME280;10956;48.878;13.316;2022-12-22T08:06:28;93679.34;;;4.73;100.00
21588;BME280;10956;48.878;13.316;2022-12-22T08:08:53;93670.47;;;4.74;100.00
21588;BME280;10956;48.878;13.316;2022-12-22T08:11:19;93675.50;;;4.81;100.00
21588;BME280;10956;48.878;13.316;2022-12-22T08:13:44;93685.28;;;4.91;100.00
21588;BME280;10956;48.878;13.316;2022-12-22T08:16:12;93678.06;;;4.98;100.00
21588;BME280;10956;48.878;13.316;2022-12-22T08:18:38;93681.16;;;4.95;100.00
21588;BME280;10956;48.878;13.316;2022-12-22T08:21:05;93685.34;;;4.96;100.00
21588;BME280;10956;48.878;13.316;2022-12-22T08:23:31;93677.50;;;4.96;100.00
21588;BME280;10956;48.878;13.316;2022-12-22T08:26:09;93681.22;;;5.00;100.00
21588;BME280;10956;48.878;13.316;2022-12-22T08:28:40;93688.25;;;4.77;100.00
21588;BME280;10956;48.878;13.316;2022-12-22T08:31:07;93687.88;;;4.69;100.00
21588;BME280;10956;48.878;13.316;2022-12-22T08:33:33;93688.75;;;4.74;100.00
21588;BME280;10956;48.878;13.316;2022-12-22T08:35:59;93690.44;;;4.85;100.00
21588;BME280;10956;48.878;13.316;2022-12-22T08:38:25;93699.84;;;4.86;100.00
21588;BME280;10956;48.878;13.316;2022-12-22T08:40:50;93700.88;;;4.85;100.00
21588;BME280;10956;48.878;13.316;2022-12-22T08:43:17;93689.59;;;4.80;100.00
21588;BME280;10956;48.878;13.316;2022-12-22T08:45:43;93685.03;;;4.70;100.00
21588;BME280;10956;48.878;13.316;2022-12-22T08:48:09;93679.81;;;4.70;100.00
21588;BME280;10956;48.878;13.316;2022-12-22T08:50:34;93669.84;;;4.67;100.00
21588;BME280;10956;48.878;13.316;2022-12-22T08:53:02;93674.22;;;4.62;100.00
21588;BME280;10956;48.878;13.316;2022-12-22T08:55:27;93681.75;;;4.58;100.00
21588;BME280;10956;48.878;13.316;2022-12-22T08:57:53;93698.97;;;4.59;100.00
21588;BME280;10956;48.878;13.316;2022-12-22T09:00:18;93698.97;;;4.59;100.00
21588;BME280;10956;48.878;13.316;2022-12-22T09:02:44;93701.81;;;4.58;100.00
21588;BME280;10956;48.878;13.316;2022-12-22T09:05:10;93704.69;;;4.56;100.00
21588;BME280;10956;48.878;13.316;2022-12-22T09:07:35;93707.22;;;4.51;100.00
21588;BME280;10956;48.878;13.316;2022-12-22T09:10:00;93696.31;;;4.54;100.00
21588;BME280;10956;48.878;13.316;2022-12-22T09:12:26;93696.41;;;4.42;100.00
21588;BME280;10956;48.878;13.316;2022-12-22T09:14:51;93690.94;;;4.44;100.00
21588;BME280;10956;48.878;13.316;2022-12-22T09:17:17;93694.53;;;4.60;100.00
21588;BME280;10956;48.878;13.316;2022-12-22T09:19:42;93677.25;;;4.75;100.00
21588;BME280;10956;48.878;13.316;2022-12-22T09:22:07;93681.09;;;4.90;100.00
21588;BME280;10956;48.878;13.316;2022-12-22T09:24:33;93675.63;;;4.91;100.00
21588;BME280;10956;48.878;13.316;2022-12-22T09:26:59;93694.75;;;4.97;100.00
21588;BME280;10956;48.878;13.316;2022-12-22T09:29:24;93678.59;;;5.00;100.00
21588;BME280;10956;48.878;13.316;2022-12-22T09:31:50;93676.53;;;5.02;100.00
21588;BME280;10956;48.878;13.316;2022-12-22T09:34:15;93674.66;;;4.97;100.00
21588;BME280;10956;48.878;13.316;2022-12-22T09:36:41;93670.47;;;5.18;100.00
21588;BME280;10956;48.878;13.316;2022-12-22T09:39:07;93665.78;;;5.20;100.00
21588;BME280;10956;48.878;13.316;2022-12-22T09:41:46;93670.69;;;5.38;100.00
21588;BME280;10956;48.878;13.316;2022-12-22T09:44:21;93667.63;;;5.46;100.00
21588;BME280;10956;48.878;13.316;2022-12-22T09:46:48;93665.84;;;5.52;100.00
21588;BME280;10956;48.878;13.316;2022-12-22T09:49:15;93660.41;;;5.59;100.00
21588;BME280;10956;48.878;13.316;2022-12-22T09:51:49;93656.28;;;5.63;100.00
21588;BME280;10956;48.878;13.316;2022-12-22T09:54:15;93658.16;;;5.67;100.00
21588;BME280;10956;48.878;13.316;2022-12-22T09:56:41;93650.50;;;5.61;100.00
21588;BME280;10956;48.878;13.316;2022-12-22T09:59:09;93640.59;;;5.63;100.00
21588;BME280;10956;48.878;13.316;2022-12-22T10:04:51;93639.59;;;5.69;100.00
21588;BME280;10956;48.878;13.316;2022-12-22T10:07:34;93639.34;;;5.70;100.00
21588;BME280;10956;48.878;13.316;2022-12-22T10:12:43;93632.66;;;5.84;100.00
21588;BME280;10956;48.878;13.316;2022-12-22T10:15:10;93630.84;;;5.85;100.00
21588;BME280;10956;48.878;13.316;2022-12-22T10:17:36;93627.41;;;5.79;100.00
21588;BME280;10956;48.878;13.316;2022-12-22T10:23:00;93622.91;;;5.75;100.00
21588;BME280;10956;48.878;13.316;2022-12-22T10:28:00;93628.28;;;5.90;100.00
21588;BME280;10956;48.878;13.316;2022-12-22T10:30:31;93621.03;;;5.97;100.00
21588;BME280;10956;48.878;13.316;2022-12-22T10:33:11;93617.66;;;6.02;100.00
21588;BME280;10956;48.878;13.316;2022-12-22T10:40:45;93617.47;;;6.13;100.00
21588;BME280;10956;48.878;13.316;2022-12-22T10:43:28;93613.28;;;6.12;100.00
21588;BME280;10956;48.878;13.316;2022-12-22T10:45:55;93612.50;;;6.12;100.00
21588;BME280;10956;48.878;13.316;2022-12-22T10:48:33;93604.69;;;6.17;100.00
21588;BME280;10956;48.878;13.316;2022-12-22T10:50:59;93589.75;;;6.12;100.00
21588;BME280;10956;48.878;13.316;2022-12-22T10:56:19;93597.22;;;6.41;100.00
21588;BME280;10956;48.878;13.316;2022-12-22T10:58:53;93603.22;;;6.36;100.00
21588;BME280;10956;48.878;13.316;2022-12-22T11:01:26;93596.25;;;6.52;100.00
21588;BME280;10956;48.878;13.316;2022-12-22T11:03:52;93605.22;;;6.71;100.00
21588;BME280;10956;48.878;13.316;2022-12-22T11:06:17;93594.78;;;6.82;100.00
21588;BME280;10956;48.878;13.316;2022-12-22T11:08:44;93604.25;;;6.88;100.00
21588;BME280;10956;48.878;13.316;2022-12-22T11:11:20;93596.66;;;6.91;100.00
21588;BME280;10956;48.878;13.316;2022-12-22T11:13:55;93598.50;;;6.91;100.00
21588;BME280;10956;48.878;13.316;2022-12-22T11:25:17;93564.09;;;6.62;100.00
21588;BME280;10956;48.878;13.316;2022-12-22T11:30:49;93572.56;;;6.27;100.00
21588;BME280;10956;48.878;13.316;2022-12-22T11:33:44;93582.25;;;6.26;100.00
21588;BME280;10956;48.878;13.316;2022-12-22T11:36:25;93578.31;;;6.24;100.00
21588;BME280;10956;48.878;13.316;2022-12-22T11:47:23;93560.91;;;6.02;100.00
21588;BME280;10956;48.878;13.316;2022-12-22T11:53:00;93555.47;;;6.09;100.00
21588;BME280;10956;48.878;13.316;2022-12-22T11:55:57;93549.50;;;6.19;100.00
21588;BME280;10956;48.878;13.316;2022-12-22T12:09:09;93535.88;;;6.17;100.00
21588;BME280;10956;48.878;13.316;2022-12-22T12:11:52;93526.75;;;6.24;100.00
21588;BME280;10956;48.878;13.316;2022-12-22T12:14:33;93527.59;;;6.35;100.00
21588;BME280;10956;48.878;13.316;2022-12-22T12:20:02;93529.75;;;6.48;100.00
21588;BME280;10956;48.878;13.316;2022-12-22T12:30:56;93530.22;;;6.35;100.00
21588;BME280;10956;48.878;13.316;2022-12-22T12:33:45;93522.34;;;6.35;100.00
21588;BME280;10956;48.878;13.316;2022-12-22T12:39:21;93498.25;;;6.23;100.00
21588;BME280;10956;48.878;13.316;2022-12-22T12:44:16;93493.78;;;6.23;100.00
21588;BME280;10956;48.878;13.316;2022-12-22T12:52:03;93475.13;;;6.04;100.00
21588;BME280;10956;48.878;13.316;2022-12-22T12:59:45;93491.56;;;5.95;100.00
21588;BME280;10956;48.878;13.316;2022-12-22T13:10:28;93492.16;;;5.65;100.00
21588;BME280;10956;48.878;13.316;2022-12-22T13:12:54;93504.13;;;5.61;100.00
21588;BME280;10956;48.878;13.316;2022-12-22T13:15:34;93497.56;;;5.53;100.00
21588;BME280;10956;48.878;13.316;2022-12-22T13:18:02;93483.66;;;5.47;100.00
21588;BME280;10956;48.878;13.316;2022-12-22T13:20:33;93509.84;;;5.53;100.00
21588;BME280;10956;48.878;13.316;2022-12-22T13:23:01;93498.22;;;5.38;100.00
21588;BME280;10956;48.878;13.316;2022-12-22T13:25:57;93519.78;;;5.56;100.00
21588;BME280;10956;48.878;13.316;2022-12-22T13:28:24;93523.97;;;5.57;100.00
21588;BME280;10956;48.878;13.316;2022-12-22T13:31:04;93532.31;;;5.54;100.00
21588;BME280;10956;48.878;13.316;2022-12-22T13:33:36;93525.50;;;5.53;100.00
21588;BME280;10956;48.878;13.316;2022-12-22T13:36:03;93532.84;;;5.56;100.00
21588;BME280;10956;48.878;13.316;2022-12-22T13:38:35;93526.00;;;5.49;100.00
21588;BME280;10956;48.878;13.316;2022-12-22T13:41:14;93527.34;;;5.52;100.00
21588;BME280;10956;48.878;13.316;2022-12-22T13:43:43;93520.00;;;5.49;100.00
21588;BME280;10956;48.878;13.316;2022-12-22T13:46:09;93535.47;;;5.56;100.00
21588;BME280;10956;48.878;13.316;2022-12-22T13:48:39;93532.84;;;5.56;100.00
21588;BME280;10956;48.878;13.316;2022-12-22T13:51:08;93531.81;;;5.57;100.00
21588;BME280;10956;48.878;13.316;2022-12-22T13:53:42;93541.28;;;5.63;100.00
21588;BME280;10956;48.878;13.316;2022-12-22T13:56:15;93520.44;;;5.73;100.00
21588;BME280;10956;48.878;13.316;2022-12-22T13:58:43;93540.28;;;5.69;100.00
21588;BME280;10956;48.878;13.316;2022-12-22T14:03:35;93520.34;;;5.63;100.00
21588;BME280;10956;48.878;13.316;2022-12-22T14:06:01;93523.44;;;5.55;100.00
21588;BME280;10956;48.878;13.316;2022-12-22T14:08:27;93531.81;;;5.57;100.00
21588;BME280;10956;48.878;13.316;2022-12-22T14:10:53;93531.03;;;5.56;100.00
21588;BME280;10956;48.878;13.316;2022-12-22T14:13:23;93529.19;;;5.57;100.00
21588;BME280;10956;48.878;13.316;2022-12-22T14:16:01;93526.06;;;5.55;100.00
21588;BME280;10956;48.878;13.316;2022-12-22T14:18:30;93517.44;;;5.54;100.00
21588;BME280;10956;48.878;13.316;2022-12-22T14:20:57;93522.88;;;5.47;100.00
21588;BME280;10956;48.878;13.316;2022-12-22T14:23:29;93510.50;;;5.38;100.00
21588;BME280;10956;48.878;13.316;2022-12-22T14:25:58;93523.06;;;5.41;100.00
21588;BME280;10956;48.878;13.316;2022-12-22T14:28:37;93518.34;;;5.38;100.00
21588;BME280;10956;48.878;13.316;2022-12-22T14:31:05;93526.44;;;5.36;100.00
21588;BME280;10956;48.878;13.316;2022-12-22T14:33:33;93519.38;;;5.37;100.00
21588;BME280;10956;48.878;13.316;2022-12-22T14:36:13;93531.66;;;5.36;100.00
21588;BME280;10956;48.878;13.316;2022-12-22T14:38:42;93526.94;;;5.33;100.00
21588;BME280;10956;48.878;13.316;2022-12-22T14:41:18;93527.31;;;5.47;100.00
21588;BME280;10956;48.878;13.316;2022-12-22T14:44:03;93531.78;;;5.51;100.00
21588;BME280;10956;48.878;13.316;2022-12-22T14:46:29;93527.59;;;5.50;100.00
21588;BME280;10956;48.878;13.316;2022-12-22T14:48:57;93524.31;;;5.65;100.00
21588;BME280;10956;48.878;13.316;2022-12-22T14:51:24;93525.09;;;5.66;100.00
21588;BME280;10956;48.878;13.316;2022-12-22T14:53:56;93528.75;;;5.65;100.00
21588;BME280;10956;48.878;13.316;2022-12-22T14:56:22;93532.19;;;5.70;100.00
21588;BME280;10956;48.878;13.316;2022-12-22T14:58:49;93525.16;;;5.76;100.00
21588;BME280;10956;48.878;13.316;2022-12-22T15:01:24;93526.16;;;5.70;100.00
21588;BME280;10956;48.878;13.316;2022-12-22T15:06:39;93530.59;;;5.69;100.00
21588;BME280;10956;48.878;13.316;2022-12-22T15:09:06;93537.69;;;5.74;100.00
21588;BME280;10956;48.878;13.316;2022-12-22T15:11:34;93532.75;;;5.77;100.00